createdAt,value
2022-09-30T00:01:50.914Z,14.90
2022-09-30T00:04:21.884Z,16.20
2022-09-30T00:06:51.885Z,18.37
2022-09-30T00:09:21.800Z,16.67
2022-09-30T00:11:50.893Z,20.30
2022-09-30T00:14:21.363Z,16.20
2022-09-30T00:16:51.615Z,20.50
2022-09-30T00:19:20.207Z,18.37
2022-09-30T00:21:49.135Z,18.87
2022-09-30T00:24:17.719Z,18.03
2022-09-30T00:26:46.257Z,15.70
2022-09-30T00:29:14.770Z,11.77
2022-09-30T00:31:43.524Z,10.97
2022-09-30T00:34:13.522Z,14.77
2022-09-30T00:36:44.788Z,12.40
2022-09-30T00:39:16.183Z,13.87
2022-09-30T00:41:45.638Z,13.47
2022-09-30T00:44:45.505Z,9.67
2022-09-30T00:47:32.595Z,9.60
2022-09-30T00:50:07.542Z,17.73
2022-09-30T00:52:36.472Z,14.43
2022-09-30T00:55:11.113Z,11.47
2022-09-30T00:57:40.992Z,11.87
2022-09-30T01:00:10.565Z,14.70
2022-09-30T01:02:39.292Z,14.27
2022-09-30T01:05:11.932Z,15.60
2022-09-30T01:07:40.805Z,10.10
2022-09-30T01:10:09.892Z,13.17
2022-09-30T01:12:38.552Z,9.53
2022-09-30T01:15:08.360Z,10.57
2022-09-30T01:17:48.270Z,9.27
2022-09-30T01:20:54.356Z,12.73
2022-09-30T01:23:48.211Z,11.00
2022-09-30T01:26:46.100Z,11.30
2022-09-30T01:29:58.216Z,8.30
2022-09-30T01:32:42.775Z,10.10
2022-09-30T01:35:19.466Z,8.33
2022-09-30T01:38:01.777Z,13.73
2022-09-30T01:40:40.916Z,8.90
2022-09-30T01:43:15.323Z,9.77
2022-09-30T01:45:47.637Z,11.10
2022-09-30T01:48:22.524Z,9.17
2022-09-30T01:50:58.729Z,13.03
2022-09-30T01:53:38.479Z,11.03
2022-09-30T01:56:14.732Z,11.37
2022-09-30T01:58:52.355Z,9.37
2022-09-30T02:01:26.431Z,11.27
2022-09-30T02:03:59.998Z,13.03
2022-09-30T02:06:32.860Z,14.80
2022-09-30T02:09:06.750Z,14.70
2022-09-30T02:11:37.343Z,10.93
2022-09-30T02:14:12.836Z,9.93
2022-09-30T02:16:44.993Z,9.23
2022-09-30T02:19:20.559Z,7.13
2022-09-30T02:21:57.908Z,9.83
2022-09-30T02:24:32.152Z,10.50
2022-09-30T02:27:02.586Z,14.00
2022-09-30T02:29:36.821Z,13.00
2022-09-30T02:32:11.271Z,11.77
2022-09-30T02:34:45.589Z,11.70
2022-09-30T02:37:18.411Z,7.23
2022-09-30T02:39:51.785Z,14.20
2022-09-30T02:42:23.212Z,9.20
2022-09-30T02:44:53.447Z,10.70
2022-09-30T02:47:29.670Z,10.37
2022-09-30T02:50:07.172Z,13.40
2022-09-30T02:52:48.594Z,9.17
2022-09-30T02:55:23.117Z,9.13
2022-09-30T02:58:00.012Z,17.33
2022-09-30T03:00:28.845Z,13.43
2022-09-30T03:03:01.846Z,11.77
2022-09-30T03:05:32.282Z,15.03
2022-09-30T03:08:01.666Z,15.23
2022-09-30T03:10:31.736Z,12.87
2022-09-30T03:13:16.491Z,13.33
2022-09-30T03:15:57.543Z,11.50
2022-09-30T03:18:47.444Z,8.30
2022-09-30T03:21:31.123Z,8.63
2022-09-30T03:24:28.767Z,11.10
2022-09-30T03:27:05.576Z,10.00
2022-09-30T03:29:45.474Z,6.80
2022-09-30T03:32:28.417Z,6.87
2022-09-30T03:35:06.188Z,11.47
2022-09-30T03:37:46.226Z,6.77
2022-09-30T03:40:24.825Z,7.67
2022-09-30T03:42:58.737Z,11.43
2022-09-30T03:45:32.636Z,9.80
2022-09-30T03:48:06.336Z,14.33
2022-09-30T03:50:38.409Z,12.23
2022-09-30T03:53:13.417Z,7.40
2022-09-30T03:55:50.763Z,8.67
2022-09-30T03:58:22.157Z,8.67
2022-09-30T04:00:52.981Z,11.73
2022-09-30T04:03:23.435Z,13.43
2022-09-30T04:05:52.053Z,10.17
2022-09-30T04:08:23.021Z,15.13
2022-09-30T04:10:51.723Z,11.33
2022-09-30T04:13:20.273Z,11.70
2022-09-30T04:15:55.282Z,23.23
2022-09-30T04:18:23.917Z,9.30
2022-09-30T04:20:52.523Z,11.03
2022-09-30T04:23:22.504Z,12.37
2022-09-30T04:25:54.038Z,11.33
2022-09-30T04:28:23.237Z,12.77
2022-09-30T04:30:51.820Z,13.40
2022-09-30T04:33:20.349Z,9.17
2022-09-30T04:35:48.934Z,18.23
2022-09-30T04:38:17.499Z,10.57
2022-09-30T04:40:49.568Z,12.57
2022-09-30T04:43:19.103Z,11.27
2022-09-30T04:45:48.172Z,18.53
2022-09-30T04:48:17.569Z,11.37
2022-09-30T04:50:46.409Z,10.33
2022-09-30T04:53:15.712Z,9.33
2022-09-30T04:55:47.615Z,8.83
2022-09-30T04:58:17.711Z,10.17
2022-09-30T05:00:46.291Z,10.43
2022-09-30T05:03:15.084Z,9.50
2022-09-30T05:05:45.917Z,8.90
2022-09-30T05:08:15.635Z,10.53
2022-09-30T05:10:44.207Z,10.50
2022-09-30T05:13:12.767Z,13.03
2022-09-30T05:15:43.083Z,8.50
2022-09-30T05:18:11.822Z,8.67
2022-09-30T05:20:40.475Z,7.07
2022-09-30T05:23:09.350Z,8.83
2022-09-30T05:25:38.142Z,13.17
2022-09-30T05:28:06.767Z,15.77
2022-09-30T05:30:35.429Z,23.53
2022-09-30T05:33:05.601Z,14.67
2022-09-30T05:35:34.474Z,11.07
2022-09-30T05:38:04.746Z,12.17
2022-09-30T05:40:33.761Z,9.97
2022-09-30T05:43:02.608Z,10.07
2022-09-30T05:45:31.283Z,12.77
2022-09-30T05:48:02.001Z,11.37
2022-09-30T05:50:32.437Z,12.33
2022-09-30T05:53:02.202Z,12.67
2022-09-30T05:55:34.724Z,14.40
2022-09-30T05:58:06.967Z,13.53
2022-09-30T06:00:35.591Z,10.90
2022-09-30T06:03:04.282Z,16.00
2022-09-30T06:05:34.339Z,14.93
2022-09-30T06:08:07.195Z,17.57
2022-09-30T06:10:36.649Z,17.43
2022-09-30T06:13:05.436Z,11.53
2022-09-30T06:15:36.578Z,11.60
2022-09-30T06:18:05.367Z,18.33
2022-09-30T06:20:35.387Z,13.77
2022-09-30T06:23:05.161Z,13.20
2022-09-30T06:25:33.789Z,12.47
2022-09-30T06:28:05.467Z,13.40
2022-09-30T06:30:35.434Z,8.83
2022-09-30T06:33:04.383Z,11.23
2022-09-30T06:35:34.303Z,14.03
2022-09-30T06:38:02.924Z,13.53
2022-09-30T06:40:31.631Z,10.97
2022-09-30T06:43:00.792Z,11.17
2022-09-30T06:45:33.298Z,13.07
2022-09-30T06:48:03.915Z,15.73
2022-09-30T06:50:34.677Z,15.70
2022-09-30T06:53:08.365Z,15.07
2022-09-30T06:55:39.470Z,13.23
2022-09-30T06:58:11.318Z,15.30
2022-09-30T07:00:40.157Z,12.77
2022-09-30T07:03:10.065Z,14.43
2022-09-30T07:05:40.081Z,11.37
2022-09-30T07:08:09.112Z,16.73
2022-09-30T07:10:38.306Z,12.83
2022-09-30T07:13:06.883Z,12.50
2022-09-30T07:15:35.450Z,12.70
2022-09-30T07:18:04.110Z,18.27
2022-09-30T07:20:33.491Z,22.07
2022-09-30T07:23:03.550Z,16.73
2022-09-30T07:25:32.150Z,15.73
2022-09-30T07:28:00.731Z,23.67
2022-09-30T07:30:29.417Z,23.13
2022-09-30T07:32:57.977Z,33.17
2022-09-30T07:35:26.845Z,22.17
2022-09-30T07:37:55.462Z,34.47
2022-09-30T07:40:31.441Z,31.83
2022-09-30T07:43:00.414Z,37.63
2022-09-30T07:45:29.089Z,38.60
2022-09-30T07:47:59.168Z,34.33
2022-09-30T07:50:27.738Z,41.63
2022-09-30T07:52:56.443Z,40.50
2022-09-30T07:55:26.390Z,43.83
2022-09-30T07:57:55.027Z,43.87
2022-09-30T08:00:41.478Z,44.43
2022-09-30T08:03:10.803Z,35.33
2022-09-30T08:05:40.931Z,38.57
2022-09-30T08:08:09.692Z,39.83
2022-09-30T08:10:39.754Z,38.00
2022-09-30T08:13:09.661Z,31.63
2022-09-30T08:15:38.189Z,30.63
2022-09-30T08:18:07.046Z,32.30
2022-09-30T08:20:35.670Z,28.43
2022-09-30T08:23:04.346Z,28.77
2022-09-30T08:25:32.962Z,24.30
2022-09-30T08:28:04.355Z,31.67
2022-09-30T08:30:35.479Z,31.20
2022-09-30T08:33:04.187Z,33.43
2022-09-30T08:35:36.052Z,32.17
2022-09-30T08:38:04.922Z,38.17
2022-09-30T08:40:38.047Z,32.67
2022-09-30T08:43:21.487Z,29.93
2022-09-30T08:45:59.384Z,29.13
2022-09-30T08:48:40.927Z,30.20
2022-09-30T08:51:29.272Z,30.30
2022-09-30T08:54:02.666Z,28.67
2022-09-30T08:56:32.885Z,32.13
2022-09-30T08:59:13.351Z,30.93
2022-09-30T09:01:45.963Z,28.10
2022-09-30T09:04:16.474Z,24.80
2022-09-30T09:06:55.018Z,31.47
2022-09-30T09:09:49.304Z,25.37
2022-09-30T09:12:31.115Z,25.13
2022-09-30T09:15:16.220Z,24.20
2022-09-30T09:18:23.693Z,23.00
2022-09-30T09:20:57.845Z,22.60
2022-09-30T09:23:28.539Z,21.80
2022-09-30T09:25:57.150Z,23.10
2022-09-30T09:28:37.005Z,23.50
2022-09-30T09:31:10.798Z,19.90
2022-09-30T09:33:41.095Z,21.00
2022-09-30T09:36:24.285Z,18.87
2022-09-30T09:39:06.620Z,18.00
2022-09-30T09:41:43.854Z,18.43
2022-09-30T09:44:22.740Z,23.07
2022-09-30T09:47:02.069Z,21.27
2022-09-30T09:49:35.985Z,20.30
2022-09-30T09:52:31.231Z,21.17
2022-09-30T09:55:00.937Z,22.47
2022-09-30T09:57:32.551Z,21.40
2022-09-30T10:00:23.108Z,22.47
2022-09-30T10:03:05.045Z,22.93
2022-09-30T10:05:39.783Z,20.70
2022-09-30T10:08:15.142Z,23.83
2022-09-30T10:10:49.967Z,21.30
2022-09-30T10:13:20.514Z,26.83
2022-09-30T10:15:51.176Z,24.20
2022-09-30T10:18:27.296Z,23.23
2022-09-30T10:20:59.469Z,23.77
2022-09-30T10:23:31.487Z,24.50
2022-09-30T10:26:04.296Z,22.00
2022-09-30T10:28:36.190Z,22.90
2022-09-30T10:31:14.524Z,24.20
2022-09-30T10:33:47.435Z,22.30
2022-09-30T10:36:18.900Z,26.27
2022-09-30T10:38:54.597Z,24.63
2022-09-30T10:41:26.046Z,26.77
2022-09-30T10:43:57.248Z,27.03
2022-09-30T10:46:29.057Z,24.37
2022-09-30T10:49:00.517Z,28.47
2022-09-30T10:51:36.524Z,25.93
2022-09-30T10:54:07.339Z,28.67
2022-09-30T10:56:45.631Z,26.57
2022-09-30T10:59:22.331Z,24.60
2022-09-30T11:01:57.956Z,25.03
2022-09-30T11:04:35.108Z,24.27
2022-09-30T11:07:15.930Z,23.03
2022-09-30T11:09:50.513Z,21.57
2022-09-30T11:12:25.857Z,25.50
2022-09-30T11:15:03.312Z,22.87
2022-09-30T11:17:41.027Z,24.70
2022-09-30T11:20:21.013Z,24.73
2022-09-30T11:22:56.536Z,23.83
2022-09-30T11:25:34.366Z,23.07
2022-09-30T11:28:17.122Z,25.60
2022-09-30T11:30:52.842Z,23.90
2022-09-30T11:33:50.726Z,23.80
2022-09-30T11:36:27.999Z,23.00
2022-09-30T11:39:15.232Z,23.63
2022-09-30T11:41:48.779Z,23.40
2022-09-30T11:44:30.143Z,23.77
2022-09-30T11:47:33.403Z,24.13
2022-09-30T11:50:20.235Z,24.10
2022-09-30T11:53:01.698Z,23.50
2022-09-30T11:55:44.835Z,24.13
2022-09-30T11:58:39.896Z,24.13
2022-09-30T12:01:15.942Z,25.87
2022-09-30T12:03:50.635Z,22.93
2022-09-30T12:06:27.785Z,24.10
2022-09-30T12:09:02.774Z,22.83
2022-09-30T12:11:38.838Z,23.50
2022-09-30T12:14:15.342Z,22.07
2022-09-30T12:16:46.326Z,22.53
2022-09-30T12:19:23.057Z,22.77
2022-09-30T12:22:00.403Z,22.83
2022-09-30T12:24:36.830Z,21.73
2022-09-30T12:27:06.938Z,22.33
2022-09-30T12:29:58.356Z,21.80
2022-09-30T12:33:12.865Z,23.70
2022-09-30T12:36:08.257Z,22.23
2022-09-30T12:39:09.493Z,22.23
2022-09-30T12:41:51.095Z,22.30
2022-09-30T12:45:19.820Z,23.83
2022-09-30T12:47:50.413Z,21.03
2022-09-30T12:50:21.608Z,21.37
2022-09-30T12:52:50.972Z,22.37
2022-09-30T12:55:28.132Z,22.30
2022-09-30T12:58:02.771Z,23.73
2022-09-30T13:00:34.762Z,22.73
2022-09-30T13:03:07.394Z,23.63
2022-09-30T13:05:57.795Z,20.27
2022-09-30T13:08:48.875Z,20.67
2022-09-30T13:11:40.433Z,21.03
2022-09-30T13:14:35.006Z,20.47
2022-09-30T13:17:26.545Z,19.43
2022-09-30T13:19:57.540Z,18.90
2022-09-30T13:22:44.418Z,20.10
2022-09-30T13:25:15.879Z,18.47
2022-09-30T13:27:47.238Z,17.67
2022-09-30T13:30:42.521Z,20.00
2022-09-30T13:33:43.805Z,21.93
2022-09-30T13:36:27.060Z,18.47
2022-09-30T13:39:22.170Z,18.37
2022-09-30T13:42:02.683Z,18.63
2022-09-30T13:44:40.193Z,18.20
2022-09-30T13:47:19.013Z,18.13
2022-09-30T13:49:54.473Z,19.73
2022-09-30T13:52:28.155Z,20.23
2022-09-30T13:54:59.830Z,19.40
2022-09-30T13:57:35.497Z,18.17
2022-09-30T14:00:12.120Z,19.10
2022-09-30T14:03:15.064Z,18.40
2022-09-30T14:05:56.993Z,17.17
2022-09-30T14:09:04.287Z,19.00
2022-09-30T14:11:51.288Z,17.83
2022-09-30T14:14:55.773Z,18.33
2022-09-30T14:17:37.669Z,20.53
2022-09-30T14:20:32.166Z,17.33
2022-09-30T14:23:01.174Z,17.67
2022-09-30T14:25:36.787Z,17.03
2022-09-30T14:28:08.502Z,18.40
2022-09-30T14:30:41.851Z,17.83
2022-09-30T14:33:20.442Z,19.03
2022-09-30T14:35:53.945Z,17.97
2022-09-30T14:38:28.025Z,17.57
2022-09-30T14:41:01.783Z,18.30
2022-09-30T14:43:38.846Z,19.43
2022-09-30T14:46:21.178Z,18.90
2022-09-30T14:48:50.688Z,18.63
2022-09-30T14:51:24.115Z,18.23
2022-09-30T14:53:57.262Z,18.23
2022-09-30T14:56:30.575Z,16.63
2022-09-30T14:59:03.237Z,17.33
2022-09-30T15:01:36.239Z,20.27
2022-09-30T15:04:09.255Z,16.60
2022-09-30T15:06:44.173Z,18.17
2022-09-30T15:09:18.987Z,19.00
2022-09-30T15:11:48.199Z,18.17
2022-09-30T15:14:20.763Z,18.47
2022-09-30T15:16:50.949Z,16.60
2022-09-30T15:19:22.646Z,17.83
2022-09-30T15:21:55.361Z,16.77
2022-09-30T15:24:27.361Z,17.60
2022-09-30T15:26:57.127Z,16.83
2022-09-30T15:29:25.729Z,18.93
2022-09-30T15:32:01.424Z,18.70
2022-09-30T15:34:31.127Z,17.80
2022-09-30T15:37:06.777Z,17.20
2022-09-30T15:39:57.568Z,16.87
2022-09-30T15:42:36.269Z,18.20
2022-09-30T15:45:07.052Z,17.03
2022-09-30T15:47:56.350Z,17.80
2022-09-30T15:50:39.252Z,18.20
2022-09-30T15:53:21.297Z,16.23
2022-09-30T15:55:55.631Z,17.57
2022-09-30T15:58:37.910Z,19.27
2022-09-30T16:01:17.390Z,16.87
2022-09-30T16:03:54.300Z,18.13
2022-09-30T16:06:27.585Z,18.83
2022-09-30T16:09:01.587Z,16.33
2022-09-30T16:11:35.115Z,18.90
2022-09-30T16:14:12.992Z,18.53
2022-09-30T16:16:41.990Z,16.40
2022-09-30T16:19:18.454Z,17.53
2022-09-30T16:21:51.024Z,18.70
2022-09-30T16:24:47.403Z,18.40
2022-09-30T16:27:32.826Z,16.50
2022-09-30T16:30:02.376Z,17.20
2022-09-30T16:32:39.678Z,19.27
2022-09-30T16:35:16.840Z,15.30
2022-09-30T16:37:45.424Z,16.20
2022-09-30T16:40:21.399Z,15.50
2022-09-30T16:42:50.367Z,15.70
2022-09-30T16:45:19.231Z,15.57
2022-09-30T16:47:48.286Z,15.60
2022-09-30T16:50:25.474Z,17.63
2022-09-30T16:52:54.250Z,16.47
2022-09-30T16:55:25.210Z,18.40
2022-09-30T16:57:54.481Z,16.37
2022-09-30T17:00:23.183Z,16.23
2022-09-30T17:02:51.990Z,15.97
2022-09-30T17:05:22.160Z,16.93
2022-09-30T17:07:53.965Z,15.63
2022-09-30T17:10:28.076Z,16.40
2022-09-30T17:13:00.218Z,16.67
2022-09-30T17:15:30.692Z,15.53
2022-09-30T17:17:59.770Z,14.87
2022-09-30T17:20:28.519Z,15.93
2022-09-30T17:22:57.141Z,14.67
2022-09-30T17:25:27.073Z,16.73
2022-09-30T17:27:56.372Z,14.00
2022-09-30T17:30:24.935Z,15.80
2022-09-30T17:32:54.441Z,15.60
2022-09-30T17:35:23.192Z,14.53
2022-09-30T17:37:51.816Z,14.87
2022-09-30T17:40:37.524Z,15.73
2022-09-30T17:43:11.662Z,13.43
2022-09-30T17:45:43.285Z,14.47
2022-09-30T17:48:13.947Z,13.83
2022-09-30T17:50:44.324Z,16.87
2022-09-30T17:53:14.146Z,15.33
2022-09-30T17:55:43.618Z,15.03
2022-09-30T17:58:14.183Z,16.43
2022-09-30T18:00:42.779Z,13.93
2022-09-30T18:03:12.210Z,15.07
2022-09-30T18:05:40.781Z,15.23
2022-09-30T18:08:09.523Z,14.63
2022-09-30T18:10:39.012Z,15.40
2022-09-30T18:13:07.927Z,15.07
2022-09-30T18:15:39.971Z,14.17
2022-09-30T18:18:09.101Z,13.70
2022-09-30T18:20:38.388Z,14.50
2022-09-30T18:23:07.030Z,12.90
2022-09-30T18:25:35.814Z,13.87
2022-09-30T18:28:06.163Z,13.20
2022-09-30T18:30:34.976Z,15.80
2022-09-30T18:33:07.308Z,14.70
2022-09-30T18:35:37.206Z,13.13
2022-09-30T18:38:07.050Z,13.43
2022-09-30T18:40:35.704Z,13.67
2022-09-30T18:43:05.474Z,12.07
2022-09-30T18:45:36.656Z,13.53
2022-09-30T18:48:07.410Z,15.83
2022-09-30T18:50:36.120Z,14.30
2022-09-30T18:53:09.923Z,13.60
2022-09-30T18:55:39.595Z,14.70
2022-09-30T18:58:08.311Z,14.27
2022-09-30T19:00:38.349Z,17.17
2022-09-30T19:03:10.768Z,11.83
2022-09-30T19:05:39.533Z,13.43
2022-09-30T19:08:09.325Z,13.77
2022-09-30T19:10:42.217Z,14.40
2022-09-30T19:13:10.921Z,13.47
2022-09-30T19:15:39.747Z,13.23
2022-09-30T19:18:10.720Z,13.10
2022-09-30T19:20:40.106Z,14.70
2022-09-30T19:23:10.875Z,12.73
2022-09-30T19:25:39.919Z,12.97
2022-09-30T19:28:08.733Z,13.07
2022-09-30T19:30:42.090Z,14.67
2022-09-30T19:33:12.354Z,14.90
2022-09-30T19:35:41.155Z,14.37
2022-09-30T19:38:09.786Z,13.80
2022-09-30T19:40:38.645Z,13.07
2022-09-30T19:43:08.263Z,17.47
2022-09-30T19:45:37.019Z,16.43
2022-09-30T19:48:05.922Z,14.67
2022-09-30T19:50:36.833Z,18.83
2022-09-30T19:53:05.460Z,16.80
2022-09-30T19:55:47.723Z,15.07
2022-09-30T19:58:18.078Z,14.77
2022-09-30T20:00:54.621Z,16.07
2022-09-30T20:03:24.359Z,15.70
2022-09-30T20:05:59.922Z,14.00
2022-09-30T20:08:29.013Z,15.60
2022-09-30T20:11:03.225Z,15.63
2022-09-30T20:13:31.973Z,15.97
2022-09-30T20:16:01.038Z,15.27
2022-09-30T20:18:29.937Z,17.43
2022-09-30T20:21:02.068Z,14.10
2022-09-30T20:23:31.086Z,16.73
2022-09-30T20:26:04.484Z,15.13
2022-09-30T20:28:33.443Z,17.60
2022-09-30T20:31:07.424Z,14.33
2022-09-30T20:33:39.242Z,16.40
2022-09-30T20:36:11.511Z,14.63
2022-09-30T20:38:40.129Z,14.87
2022-09-30T20:41:08.798Z,15.00
2022-09-30T20:43:37.457Z,15.53
2022-09-30T20:46:08.487Z,14.67
2022-09-30T20:48:40.046Z,20.10
2022-09-30T20:51:11.454Z,14.80
2022-09-30T20:53:48.136Z,14.23
2022-09-30T20:56:18.023Z,20.00
2022-09-30T20:58:46.778Z,14.60
2022-09-30T21:01:18.645Z,14.80
2022-09-30T21:03:50.463Z,16.83
2022-09-30T21:06:21.856Z,14.80
2022-09-30T21:08:50.982Z,15.67
2022-09-30T21:11:19.923Z,15.23
2022-09-30T21:13:50.687Z,14.33
2022-09-30T21:16:21.149Z,14.97
2022-09-30T21:18:52.145Z,14.23
2022-09-30T21:21:24.803Z,14.47
2022-09-30T21:23:55.376Z,13.20
2022-09-30T21:26:24.388Z,16.23
2022-09-30T21:28:52.959Z,13.90
2022-09-30T21:31:24.164Z,14.20
2022-09-30T21:33:53.679Z,15.23
2022-09-30T21:36:24.346Z,15.33
2022-09-30T21:38:53.508Z,15.73
2022-09-30T21:41:22.976Z,22.27
2022-09-30T21:43:51.581Z,15.27
2022-09-30T21:46:20.316Z,15.83
2022-09-30T21:48:48.859Z,14.70
2022-09-30T21:51:17.996Z,15.00
2022-09-30T21:53:48.832Z,15.23
2022-09-30T21:56:17.404Z,14.03
2022-09-30T21:58:46.103Z,14.37
2022-09-30T22:01:14.759Z,14.07
2022-09-30T22:03:43.388Z,14.17
2022-09-30T22:06:12.560Z,14.40
2022-09-30T22:08:42.111Z,16.40
2022-09-30T22:11:13.615Z,14.40
2022-09-30T22:13:45.303Z,15.63
2022-09-30T22:16:16.314Z,13.60
2022-09-30T22:18:44.956Z,14.67
2022-09-30T22:21:15.557Z,18.30
2022-09-30T22:23:47.062Z,15.07
2022-09-30T22:26:19.125Z,15.37
2022-09-30T22:28:48.985Z,16.97
2022-09-30T22:31:19.561Z,16.60
2022-09-30T22:34:06.033Z,14.93
2022-09-30T22:36:52.236Z,19.03
2022-09-30T22:39:22.794Z,14.80
2022-09-30T22:41:54.229Z,14.13
2022-09-30T22:44:24.806Z,16.17
2022-09-30T22:46:54.421Z,16.00
2022-09-30T22:49:24.437Z,20.00
2022-09-30T22:51:53.580Z,16.23
2022-09-30T22:54:22.701Z,16.20
2022-09-30T22:56:51.454Z,15.70
2022-09-30T22:59:22.147Z,18.37
2022-09-30T23:01:50.729Z,18.93
2022-09-30T23:04:20.051Z,18.13
2022-09-30T23:06:49.510Z,17.60
2022-09-30T23:09:18.986Z,16.60
2022-09-30T23:11:48.325Z,18.07
2022-09-30T23:14:16.931Z,18.77
2022-09-30T23:16:47.509Z,33.27
2022-09-30T23:19:16.218Z,15.13
2022-09-30T23:21:45.055Z,15.90
2022-09-30T23:24:14.431Z,14.27
2022-09-30T23:26:43.512Z,19.63
2022-09-30T23:29:13.873Z,17.00
2022-09-30T23:31:42.975Z,16.17
2022-09-30T23:34:13.179Z,18.00
2022-09-30T23:36:42.112Z,18.40
2022-09-30T23:39:15.558Z,14.67
2022-09-30T23:41:46.274Z,16.10
2022-09-30T23:44:15.668Z,16.77
2022-09-30T23:47:04.257Z,19.63
2022-09-30T23:49:35.971Z,20.10
2022-09-30T23:52:08.044Z,14.70
2022-09-30T23:54:40.851Z,17.10
2022-09-30T23:57:10.601Z,14.50
2022-09-30T23:59:39.773Z,19.83
